Main page
METAR-TAF:

METAR-TAF

Airports :

Cherif Al Idrissi Airport

Al Hoceima, Morocco

latitude: 35-11N, longitude: 003-51W, elevation: 27 m

Current weather observation

The report was made 1 hour and 0 minutes ago, at 14:00 UTC
Wind 12 kt from the North
Temperature 19°C
Humidity 43%
Pressure 1013 hPa
Visibility 10 km or more
Few clouds at a height of 3000 ft

METAR: GMTA 241400Z 35012KT 9999 FEW030 19/06 Q1013 NOSIG

Time: 16:00 (15:00 UTC)

Forecast

The report was made 4 hours and 0 minutes ago, at 11:00 UTC
Forecast valid from 24 at 12 UTC to 25 at 18 UTC
Wind 8 kt from the North/Northeast
Visibility 10 km or more
Few clouds at a height of 3000 ft
Probability 30%
from 25 at 12 UTC to 25 at 18 UTC
Wind 10 kt from the West/Northwest

TAF: GMTA 241100Z 2412/2518 03008KT 9999 FEW030 PROB30 2512/2518 30010KT

Weather observations and forecasts of more than 4000 airports (METAR and TAF reports).

The available stations are represented by yellow and red dots on the map.

Hover mouse over dot to see the name of the station.

Then click to see weather observations and forecasts.

To change the map : click on the green buttons with a black cross to zoom in, on the green button with a dash to zoom out, or on the green arrows for adjacent maps.


METAR-TAF: